sensor_id;sensor_type;location;lat;lon;timestamp;P1;durP1;ratioP1;P2;durP2;ratioP2
41952;SDS011;63613;28.200;112.870;2023-03-01T00:02:09;47.05;;;33.95;;
41952;SDS011;63613;28.200;112.870;2023-03-01T00:04:36;44.58;;;32.75;;
41952;SDS011;63613;28.200;112.870;2023-03-01T00:07:03;49.13;;;33.63;;
41952;SDS011;63613;28.200;112.870;2023-03-01T00:09:33;46.20;;;32.40;;
41952;SDS011;63613;28.200;112.870;2023-03-01T00:12:01;44.47;;;32.47;;
41952;SDS011;63613;28.200;112.870;2023-03-01T00:14:28;47.70;;;33.80;;
41952;SDS011;63613;28.200;112.870;2023-03-01T00:16:55;48.33;;;35.15;;
41952;SDS011;63613;28.200;112.870;2023-03-01T00:19:22;52.55;;;37.55;;
41952;SDS011;63613;28.200;112.870;2023-03-01T00:21:49;48.88;;;36.03;;
41952;SDS011;63613;28.200;112.870;2023-03-01T00:24:16;59.03;;;39.22;;
41952;SDS011;63613;28.200;112.870;2023-03-01T00:26:43;57.13;;;39.38;;
41952;SDS011;63613;28.200;112.870;2023-03-01T00:29:10;56.95;;;40.42;;
41952;SDS011;63613;28.200;112.870;2023-03-01T00:31:37;58.95;;;39.13;;
41952;SDS011;63613;28.200;112.870;2023-03-01T00:34:04;54.60;;;38.13;;
41952;SDS011;63613;28.200;112.870;2023-03-01T00:36:50;54.67;;;37.33;;
41952;SDS011;63613;28.200;112.870;2023-03-01T00:39:17;56.15;;;38.85;;
41952;SDS011;63613;28.200;112.870;2023-03-01T00:41:44;55.63;;;39.67;;
41952;SDS011;63613;28.200;112.870;2023-03-01T00:44:11;59.45;;;38.92;;
41952;SDS011;63613;28.200;112.870;2023-03-01T00:46:38;56.55;;;39.88;;
41952;SDS011;63613;28.200;112.870;2023-03-01T00:49:05;56.90;;;38.72;;
41952;SDS011;63613;28.200;112.870;2023-03-01T00:51:32;54.80;;;37.63;;
41952;SDS011;63613;28.200;112.870;2023-03-01T00:53:59;55.08;;;38.03;;
41952;SDS011;63613;28.200;112.870;2023-03-01T00:56:28;62.05;;;43.78;;
41952;SDS011;63613;28.200;112.870;2023-03-01T00:58:55;65.43;;;44.42;;
41952;SDS011;63613;28.200;112.870;2023-03-01T01:01:23;70.85;;;46.70;;
41952;SDS011;63613;28.200;112.870;2023-03-01T01:03:56;66.22;;;46.00;;
41952;SDS011;63613;28.200;112.870;2023-03-01T01:06:31;71.05;;;46.53;;
41952;SDS011;63613;28.200;112.870;2023-03-01T01:09:00;74.22;;;48.42;;
41952;SDS011;63613;28.200;112.870;2023-03-01T01:11:30;72.75;;;47.40;;
41952;SDS011;63613;28.200;112.870;2023-03-01T01:13:57;70.20;;;49.15;;
41952;SDS011;63613;28.200;112.870;2023-03-01T01:16:25;87.30;;;58.03;;
41952;SDS011;63613;28.200;112.870;2023-03-01T01:18:53;111.40;;;70.07;;
41952;SDS011;63613;28.200;112.870;2023-03-01T01:21:22;108.70;;;70.90;;
41952;SDS011;63613;28.200;112.870;2023-03-01T01:23:52;112.25;;;72.90;;
41952;SDS011;63613;28.200;112.870;2023-03-01T01:26:24;129.68;;;83.00;;
41952;SDS011;63613;28.200;112.870;2023-03-01T01:28:52;130.43;;;85.20;;
41952;SDS011;63613;28.200;112.870;2023-03-01T01:31:20;132.10;;;85.90;;
41952;SDS011;63613;28.200;112.870;2023-03-01T01:33:51;128.55;;;86.97;;
41952;SDS011;63613;28.200;112.870;2023-03-01T01:36:19;137.25;;;87.00;;
41952;SDS011;63613;28.200;112.870;2023-03-01T01:38:46;138.63;;;89.53;;
41952;SDS011;63613;28.200;112.870;2023-03-01T01:41:13;130.80;;;87.38;;
41952;SDS011;63613;28.200;112.870;2023-03-01T01:43:43;128.23;;;85.70;;
41952;SDS011;63613;28.200;112.870;2023-03-01T01:46:20;134.00;;;88.57;;
41952;SDS011;63613;28.200;112.870;2023-03-01T01:48:58;136.57;;;85.68;;
41952;SDS011;63613;28.200;112.870;2023-03-01T01:51:28;132.00;;;87.30;;
41952;SDS011;63613;28.200;112.870;2023-03-01T01:57:13;129.52;;;85.38;;
41952;SDS011;63613;28.200;112.870;2023-03-01T01:59:45;123.55;;;81.97;;
41952;SDS011;63613;28.200;112.870;2023-03-01T02:02:15;122.13;;;82.75;;
41952;SDS011;63613;28.200;112.870;2023-03-01T02:04:42;126.13;;;83.57;;
41952;SDS011;63613;28.200;112.870;2023-03-01T02:07:17;129.52;;;84.45;;
41952;SDS011;63613;28.200;112.870;2023-03-01T02:09:47;119.05;;;79.22;;
41952;SDS011;63613;28.200;112.870;2023-03-01T02:12:16;123.65;;;79.70;;
41952;SDS011;63613;28.200;112.870;2023-03-01T02:14:46;114.57;;;72.60;;
41952;SDS011;63613;28.200;112.870;2023-03-01T02:17:13;120.05;;;78.38;;
41952;SDS011;63613;28.200;112.870;2023-03-01T02:22:32;122.05;;;80.45;;
41952;SDS011;63613;28.200;112.870;2023-03-01T02:27:44;112.70;;;77.75;;
41952;SDS011;63613;28.200;112.870;2023-03-01T02:30:34;116.28;;;77.80;;
41952;SDS011;63613;28.200;112.870;2023-03-01T02:33:02;110.30;;;72.20;;
41952;SDS011;63613;28.200;112.870;2023-03-01T02:35:31;111.63;;;74.47;;
41952;SDS011;63613;28.200;112.870;2023-03-01T02:38:01;115.68;;;80.35;;
41952;SDS011;63613;28.200;112.870;2023-03-01T02:40:31;113.60;;;74.60;;
41952;SDS011;63613;28.200;112.870;2023-03-01T02:43:01;108.45;;;68.55;;
41952;SDS011;63613;28.200;112.870;2023-03-01T02:45:34;114.40;;;77.50;;
41952;SDS011;63613;28.200;112.870;2023-03-01T02:48:01;114.35;;;75.45;;
41952;SDS011;63613;28.200;112.870;2023-03-01T02:55:31;119.60;;;74.85;;
41952;SDS011;63613;28.200;112.870;2023-03-01T02:57:58;116.15;;;76.13;;
41952;SDS011;63613;28.200;112.870;2023-03-01T03:00:42;110.88;;;73.55;;
41952;SDS011;63613;28.200;112.870;2023-03-01T03:03:17;113.65;;;75.38;;
41952;SDS011;63613;28.200;112.870;2023-03-01T03:05:46;113.80;;;76.32;;
41952;SDS011;63613;28.200;112.870;2023-03-01T03:08:13;118.18;;;81.90;;
41952;SDS011;63613;28.200;112.870;2023-03-01T03:10:47;120.60;;;82.32;;
41952;SDS011;63613;28.200;112.870;2023-03-01T03:13:14;117.75;;;81.07;;
41952;SDS011;63613;28.200;112.870;2023-03-01T03:15:42;122.03;;;81.90;;
41952;SDS011;63613;28.200;112.870;2023-03-01T03:18:10;116.28;;;77.30;;
41952;SDS011;63613;28.200;112.870;2023-03-01T03:20:40;119.22;;;76.68;;
41952;SDS011;63613;28.200;112.870;2023-03-01T03:23:12;123.05;;;78.93;;
41952;SDS011;63613;28.200;112.870;2023-03-01T03:25:39;117.55;;;75.60;;
41952;SDS011;63613;28.200;112.870;2023-03-01T03:28:06;116.95;;;77.32;;
41952;SDS011;63613;28.200;112.870;2023-03-01T03:30:36;114.57;;;72.15;;
41952;SDS011;63613;28.200;112.870;2023-03-01T03:33:05;113.35;;;73.05;;
41952;SDS011;63613;28.200;112.870;2023-03-01T03:35:34;117.50;;;75.38;;
41952;SDS011;63613;28.200;112.870;2023-03-01T03:38:06;114.22;;;73.28;;
41952;SDS011;63613;28.200;112.870;2023-03-01T03:40:42;112.70;;;71.10;;
41952;SDS011;63613;28.200;112.870;2023-03-01T03:43:14;110.97;;;73.30;;
41952;SDS011;63613;28.200;112.870;2023-03-01T03:45:44;118.15;;;77.78;;
41952;SDS011;63613;28.200;112.870;2023-03-01T03:48:11;121.55;;;74.55;;
41952;SDS011;63613;28.200;112.870;2023-03-01T03:50:39;121.75;;;80.30;;
41952;SDS011;63613;28.200;112.870;2023-03-01T03:53:08;111.00;;;73.90;;
41952;SDS011;63613;28.200;112.870;2023-03-01T03:55:37;115.18;;;75.65;;
41952;SDS011;63613;28.200;112.870;2023-03-01T03:58:07;106.30;;;67.68;;
41952;SDS011;63613;28.200;112.870;2023-03-01T04:00:36;115.30;;;76.50;;
41952;SDS011;63613;28.200;112.870;2023-03-01T04:03:04;120.53;;;73.93;;
41952;SDS011;63613;28.200;112.870;2023-03-01T04:05:31;119.05;;;78.97;;
41952;SDS011;63613;28.200;112.870;2023-03-01T04:07:58;117.63;;;77.45;;
41952;SDS011;63613;28.200;112.870;2023-03-01T04:10:33;120.33;;;78.60;;
41952;SDS011;63613;28.200;112.870;2023-03-01T04:13:05;117.65;;;79.80;;
41952;SDS011;63613;28.200;112.870;2023-03-01T04:15:33;114.70;;;76.00;;
41952;SDS011;63613;28.200;112.870;2023-03-01T04:18:01;116.82;;;75.78;;
41952;SDS011;63613;28.200;112.870;2023-03-01T04:20:32;120.35;;;75.07;;
41952;SDS011;63613;28.200;112.870;2023-03-01T04:25:57;111.88;;;76.65;;
41952;SDS011;63613;28.200;112.870;2023-03-01T04:31:01;114.28;;;74.65;;
41952;SDS011;63613;28.200;112.870;2023-03-01T04:33:45;116.30;;;77.60;;
41952;SDS011;63613;28.200;112.870;2023-03-01T04:36:28;112.93;;;72.78;;
41952;SDS011;63613;28.200;112.870;2023-03-01T04:38:56;114.07;;;73.60;;
41952;SDS011;63613;28.200;112.870;2023-03-01T04:41:23;116.90;;;76.75;;
41952;SDS011;63613;28.200;112.870;2023-03-01T04:43:51;117.88;;;73.82;;
41952;SDS011;63613;28.200;112.870;2023-03-01T04:46:19;108.70;;;72.30;;
41952;SDS011;63613;28.200;112.870;2023-03-01T04:48:47;111.47;;;72.68;;
41952;SDS011;63613;28.200;112.870;2023-03-01T04:51:14;111.55;;;73.88;;
41952;SDS011;63613;28.200;112.870;2023-03-01T04:53:43;109.55;;;72.80;;
41952;SDS011;63613;28.200;112.870;2023-03-01T04:56:10;102.43;;;70.07;;
41952;SDS011;63613;28.200;112.870;2023-03-01T04:58:39;107.10;;;70.82;;
41952;SDS011;63613;28.200;112.870;2023-03-01T05:01:14;101.63;;;67.45;;
41952;SDS011;63613;28.200;112.870;2023-03-01T05:03:48;102.93;;;69.03;;
41952;SDS011;63613;28.200;112.870;2023-03-01T05:06:16;98.88;;;68.75;;
41952;SDS011;63613;28.200;112.870;2023-03-01T05:08:45;105.85;;;70.93;;
41952;SDS011;63613;28.200;112.870;2023-03-01T05:11:12;102.25;;;68.63;;
41952;SDS011;63613;28.200;112.870;2023-03-01T05:13:39;103.57;;;70.20;;
41952;SDS011;63613;28.200;112.870;2023-03-01T05:16:06;97.18;;;67.32;;
41952;SDS011;63613;28.200;112.870;2023-03-01T05:18:36;97.07;;;64.90;;
41952;SDS011;63613;28.200;112.870;2023-03-01T05:21:05;101.93;;;65.45;;
41952;SDS011;63613;28.200;112.870;2023-03-01T05:23:36;98.05;;;66.25;;
41952;SDS011;63613;28.200;112.870;2023-03-01T05:26:04;102.22;;;67.35;;
41952;SDS011;63613;28.200;112.870;2023-03-01T05:28:32;98.85;;;66.35;;
41952;SDS011;63613;28.200;112.870;2023-03-01T05:31:19;97.82;;;67.55;;
41952;SDS011;63613;28.200;112.870;2023-03-01T05:33:46;96.97;;;65.03;;
41952;SDS011;63613;28.200;112.870;2023-03-01T05:36:13;92.47;;;61.17;;
41952;SDS011;63613;28.200;112.870;2023-03-01T05:39:00;98.30;;;65.30;;
41952;SDS011;63613;28.200;112.870;2023-03-01T05:41:27;103.40;;;69.13;;
41952;SDS011;63613;28.200;112.870;2023-03-01T05:43:53;100.25;;;67.53;;
41952;SDS011;63613;28.200;112.870;2023-03-01T05:46:41;89.18;;;61.42;;
41952;SDS011;63613;28.200;112.870;2023-03-01T05:49:08;92.30;;;62.72;;
41952;SDS011;63613;28.200;112.870;2023-03-01T05:51:34;94.97;;;60.58;;
41952;SDS011;63613;28.200;112.870;2023-03-01T05:54:01;93.53;;;62.47;;
41952;SDS011;63613;28.200;112.870;2023-03-01T05:56:34;86.13;;;57.20;;
41952;SDS011;63613;28.200;112.870;2023-03-01T05:59:03;86.82;;;56.22;;
41952;SDS011;63613;28.200;112.870;2023-03-01T06:01:50;83.50;;;55.72;;
41952;SDS011;63613;28.200;112.870;2023-03-01T06:04:16;76.85;;;54.00;;
41952;SDS011;63613;28.200;112.870;2023-03-01T06:06:43;78.70;;;54.63;;
41952;SDS011;63613;28.200;112.870;2023-03-01T06:09:10;84.03;;;57.10;;
41952;SDS011;63613;28.200;112.870;2023-03-01T06:11:37;83.57;;;54.67;;
41952;SDS011;63613;28.200;112.870;2023-03-01T06:14:04;82.43;;;55.50;;
41952;SDS011;63613;28.200;112.870;2023-03-01T06:16:50;86.72;;;56.35;;
41952;SDS011;63613;28.200;112.870;2023-03-01T06:19:17;84.28;;;56.00;;
41952;SDS011;63613;28.200;112.870;2023-03-01T06:21:44;95.18;;;62.10;;
41952;SDS011;63613;28.200;112.870;2023-03-01T06:24:11;91.80;;;60.65;;
41952;SDS011;63613;28.200;112.870;2023-03-01T06:26:38;89.18;;;59.83;;
41952;SDS011;63613;28.200;112.870;2023-03-01T06:29:05;94.40;;;62.42;;
41952;SDS011;63613;28.200;112.870;2023-03-01T06:31:34;92.43;;;59.83;;
41952;SDS011;63613;28.200;112.870;2023-03-01T06:34:20;98.35;;;62.42;;
41952;SDS011;63613;28.200;112.870;2023-03-01T06:36:47;98.80;;;63.95;;
41952;SDS011;63613;28.200;112.870;2023-03-01T06:39:14;104.25;;;65.22;;
41952;SDS011;63613;28.200;112.870;2023-03-01T06:41:43;109.55;;;67.40;;
41952;SDS011;63613;28.200;112.870;2023-03-01T06:44:10;106.45;;;66.57;;
41952;SDS011;63613;28.200;112.870;2023-03-01T06:46:40;104.40;;;68.47;;
41952;SDS011;63613;28.200;112.870;2023-03-01T06:49:06;101.40;;;68.43;;
41952;SDS011;63613;28.200;112.870;2023-03-01T06:51:35;100.72;;;64.93;;
41952;SDS011;63613;28.200;112.870;2023-03-01T06:54:03;107.68;;;70.30;;
41952;SDS011;63613;28.200;112.870;2023-03-01T06:56:31;119.95;;;78.88;;
41952;SDS011;63613;28.200;112.870;2023-03-01T06:58:58;117.40;;;76.80;;
41952;SDS011;63613;28.200;112.870;2023-03-01T07:01:25;118.10;;;73.85;;
41952;SDS011;63613;28.200;112.870;2023-03-01T07:03:52;114.30;;;74.90;;
41952;SDS011;63613;28.200;112.870;2023-03-01T07:06:18;117.93;;;76.20;;
41952;SDS011;63613;28.200;112.870;2023-03-01T07:08:45;112.32;;;74.25;;
41952;SDS011;63613;28.200;112.870;2023-03-01T07:11:13;114.50;;;74.28;;
41952;SDS011;63613;28.200;112.870;2023-03-01T07:13:40;114.05;;;77.38;;
41952;SDS011;63613;28.200;112.870;2023-03-01T07:16:07;119.85;;;80.75;;
41952;SDS011;63613;28.200;112.870;2023-03-01T07:18:34;119.20;;;73.90;;
41952;SDS011;63613;28.200;112.870;2023-03-01T07:21:06;125.45;;;83.20;;
41952;SDS011;63613;28.200;112.870;2023-03-01T07:23:36;126.28;;;84.75;;
41952;SDS011;63613;28.200;112.870;2023-03-01T07:26:03;124.35;;;80.43;;
41952;SDS011;63613;28.200;112.870;2023-03-01T07:28:30;130.40;;;85.50;;
41952;SDS011;63613;28.200;112.870;2023-03-01T07:31:02;136.73;;;89.78;;
41952;SDS011;63613;28.200;112.870;2023-03-01T07:33:29;149.43;;;100.40;;
41952;SDS011;63613;28.200;112.870;2023-03-01T07:36:00;155.65;;;98.22;;
41952;SDS011;63613;28.200;112.870;2023-03-01T07:38:30;149.57;;;99.97;;
41952;SDS011;63613;28.200;112.870;2023-03-01T07:41:01;148.57;;;97.82;;
41952;SDS011;63613;28.200;112.870;2023-03-01T07:43:29;139.32;;;91.20;;
41952;SDS011;63613;28.200;112.870;2023-03-01T07:46:02;141.85;;;91.13;;
41952;SDS011;63613;28.200;112.870;2023-03-01T07:48:29;147.35;;;100.53;;
41952;SDS011;63613;28.200;112.870;2023-03-01T07:51:00;148.70;;;98.05;;
41952;SDS011;63613;28.200;112.870;2023-03-01T07:53:29;143.63;;;93.30;;
41952;SDS011;63613;28.200;112.870;2023-03-01T07:56:15;148.02;;;95.55;;
41952;SDS011;63613;28.200;112.870;2023-03-01T07:58:44;153.63;;;95.18;;
41952;SDS011;63613;28.200;112.870;2023-03-01T08:01:12;152.43;;;96.80;;
41952;SDS011;63613;28.200;112.870;2023-03-01T08:03:42;148.45;;;97.38;;
41952;SDS011;63613;28.200;112.870;2023-03-01T08:06:10;153.35;;;98.72;;
41952;SDS011;63613;28.200;112.870;2023-03-01T08:08:38;153.60;;;98.88;;
41952;SDS011;63613;28.200;112.870;2023-03-01T08:11:06;150.95;;;97.70;;
41952;SDS011;63613;28.200;112.870;2023-03-01T08:13:33;159.60;;;100.20;;
41952;SDS011;63613;28.200;112.870;2023-03-01T08:16:19;165.05;;;103.00;;
41952;SDS011;63613;28.200;112.870;2023-03-01T08:18:46;162.73;;;102.47;;
41952;SDS011;63613;28.200;112.870;2023-03-01T08:21:14;155.50;;;102.18;;
41952;SDS011;63613;28.200;112.870;2023-03-01T08:23:42;163.73;;;103.63;;
41952;SDS011;63613;28.200;112.870;2023-03-01T08:28:40;159.38;;;101.97;;
41952;SDS011;63613;28.200;112.870;2023-03-01T08:31:27;165.02;;;107.00;;
41952;SDS011;63613;28.200;112.870;2023-03-01T08:34:01;171.55;;;110.28;;
41952;SDS011;63613;28.200;112.870;2023-03-01T08:36:32;174.00;;;111.13;;
41952;SDS011;63613;28.200;112.870;2023-03-01T08:39:02;173.98;;;110.43;;
41952;SDS011;63613;28.200;112.870;2023-03-01T08:41:30;170.90;;;111.50;;
41952;SDS011;63613;28.200;112.870;2023-03-01T08:43:57;178.77;;;115.82;;
41952;SDS011;63613;28.200;112.870;2023-03-01T08:46:27;174.48;;;111.45;;
41952;SDS011;63613;28.200;112.870;2023-03-01T08:48:55;178.15;;;113.50;;
41952;SDS011;63613;28.200;112.870;2023-03-01T08:51:23;171.57;;;111.88;;
41952;SDS011;63613;28.200;112.870;2023-03-01T08:53:51;171.57;;;108.10;;
41952;SDS011;63613;28.200;112.870;2023-03-01T08:56:18;169.20;;;106.38;;
41952;SDS011;63613;28.200;112.870;2023-03-01T08:58:46;172.25;;;112.88;;
41952;SDS011;63613;28.200;112.870;2023-03-01T09:01:15;164.20;;;106.18;;
41952;SDS011;63613;28.200;112.870;2023-03-01T09:03:43;165.95;;;108.00;;
41952;SDS011;63613;28.200;112.870;2023-03-01T09:06:10;176.20;;;111.15;;
41952;SDS011;63613;28.200;112.870;2023-03-01T09:08:38;174.60;;;114.10;;
41952;SDS011;63613;28.200;112.870;2023-03-01T09:11:07;176.77;;;114.47;;
41952;SDS011;63613;28.200;112.870;2023-03-01T09:13:35;179.50;;;111.55;;
41952;SDS011;63613;28.200;112.870;2023-03-01T09:16:03;183.82;;;115.80;;
41952;SDS011;63613;28.200;112.870;2023-03-01T09:18:53;182.30;;;116.18;;
41952;SDS011;63613;28.200;112.870;2023-03-01T09:21:21;173.73;;;112.15;;
41952;SDS011;63613;28.200;112.870;2023-03-01T09:23:49;179.02;;;115.30;;
41952;SDS011;63613;28.200;112.870;2023-03-01T09:26:20;188.95;;;116.82;;
41952;SDS011;63613;28.200;112.870;2023-03-01T09:28:52;179.32;;;110.47;;
41952;SDS011;63613;28.200;112.870;2023-03-01T09:31:20;178.60;;;109.47;;
41952;SDS011;63613;28.200;112.870;2023-03-01T09:33:49;192.90;;;120.40;;
41952;SDS011;63613;28.200;112.870;2023-03-01T09:36:18;198.68;;;120.57;;
41952;SDS011;63613;28.200;112.870;2023-03-01T09:38:47;193.10;;;115.93;;
41952;SDS011;63613;28.200;112.870;2023-03-01T09:44:07;193.07;;;122.70;;
41952;SDS011;63613;28.200;112.870;2023-03-01T09:46:52;186.77;;;113.00;;
41952;SDS011;63613;28.200;112.870;2023-03-01T09:49:39;188.52;;;116.57;;
41952;SDS011;63613;28.200;112.870;2023-03-01T09:52:32;187.02;;;117.13;;
41952;SDS011;63613;28.200;112.870;2023-03-01T09:55:09;200.20;;;120.30;;
41952;SDS011;63613;28.200;112.870;2023-03-01T09:57:55;201.85;;;120.80;;
41952;SDS011;63613;28.200;112.870;2023-03-01T10:06:29;193.20;;;120.70;;
41952;SDS011;63613;28.200;112.870;2023-03-01T10:08:57;195.35;;;123.88;;
41952;SDS011;63613;28.200;112.870;2023-03-01T10:11:37;203.10;;;129.93;;
41952;SDS011;63613;28.200;112.870;2023-03-01T10:16:56;207.20;;;126.57;;
41952;SDS011;63613;28.200;112.870;2023-03-01T10:19:43;193.90;;;123.82;;
41952;SDS011;63613;28.200;112.870;2023-03-01T10:24:50;207.50;;;130.93;;
41952;SDS011;63613;28.200;112.870;2023-03-01T10:27:23;207.88;;;128.68;;
41952;SDS011;63613;28.200;112.870;2023-03-01T10:30:16;226.35;;;134.95;;
41952;SDS011;63613;28.200;112.870;2023-03-01T10:32:55;224.27;;;132.93;;
41952;SDS011;63613;28.200;112.870;2023-03-01T10:35:27;237.70;;;139.07;;
41952;SDS011;63613;28.200;112.870;2023-03-01T10:37:58;231.95;;;139.07;;
41952;SDS011;63613;28.200;112.870;2023-03-01T10:40:35;218.68;;;135.45;;
41952;SDS011;63613;28.200;112.870;2023-03-01T10:43:15;250.00;;;146.90;;
41952;SDS011;63613;28.200;112.870;2023-03-01T10:45:42;242.00;;;143.52;;
41952;SDS011;63613;28.200;112.870;2023-03-01T10:50:50;246.25;;;140.93;;
41952;SDS011;63613;28.200;112.870;2023-03-01T10:53:35;240.60;;;143.52;;
41952;SDS011;63613;28.200;112.870;2023-03-01T10:56:25;251.70;;;153.20;;
41952;SDS011;63613;28.200;112.870;2023-03-01T10:59:04;253.05;;;157.35;;
41952;SDS011;63613;28.200;112.870;2023-03-01T11:01:45;237.20;;;149.53;;
41952;SDS011;63613;28.200;112.870;2023-03-01T11:04:26;229.85;;;139.70;;
41952;SDS011;63613;28.200;112.870;2023-03-01T11:06:59;234.38;;;143.25;;
41952;SDS011;63613;28.200;112.870;2023-03-01T11:09:32;234.63;;;141.45;;
41952;SDS011;63613;28.200;112.870;2023-03-01T11:12:12;230.98;;;143.45;;
41952;SDS011;63613;28.200;112.870;2023-03-01T11:14:48;235.88;;;145.77;;
41952;SDS011;63613;28.200;112.870;2023-03-01T11:22:29;240.93;;;145.20;;
41952;SDS011;63613;28.200;112.870;2023-03-01T11:24:58;235.43;;;144.30;;
41952;SDS011;63613;28.200;112.870;2023-03-01T11:27:47;224.73;;;136.13;;
41952;SDS011;63613;28.200;112.870;2023-03-01T11:38:55;233.02;;;145.30;;
41952;SDS011;63613;28.200;112.870;2023-03-01T11:41:24;221.32;;;137.38;;
41952;SDS011;63613;28.200;112.870;2023-03-01T11:52:32;242.93;;;148.13;;
41952;SDS011;63613;28.200;112.870;2023-03-01T12:06:38;237.77;;;143.48;;
41952;SDS011;63613;28.200;112.870;2023-03-01T12:17:45;217.63;;;135.07;;
41952;SDS011;63613;28.200;112.870;2023-03-01T12:20:45;234.38;;;146.70;;
41952;SDS011;63613;28.200;112.870;2023-03-01T12:49:42;214.70;;;135.48;;
41952;SDS011;63613;28.200;112.870;2023-03-01T12:52:15;214.23;;;135.52;;
41952;SDS011;63613;28.200;112.870;2023-03-01T12:55:05;204.52;;;129.45;;
41952;SDS011;63613;28.200;112.870;2023-03-01T12:57:42;196.85;;;130.32;;
41952;SDS011;63613;28.200;112.870;2023-03-01T13:00:45;197.63;;;128.20;;
41952;SDS011;63613;28.200;112.870;2023-03-01T13:06:25;193.63;;;124.57;;
41952;SDS011;63613;28.200;112.870;2023-03-01T13:09:18;188.80;;;120.00;;
41952;SDS011;63613;28.200;112.870;2023-03-01T13:15:29;194.48;;;123.63;;
41952;SDS011;63613;28.200;112.870;2023-03-01T13:18:28;191.52;;;122.18;;
41952;SDS011;63613;28.200;112.870;2023-03-01T13:20:54;177.05;;;115.95;;
41952;SDS011;63613;28.200;112.870;2023-03-01T13:26:04;180.90;;;115.40;;
41952;SDS011;63613;28.200;112.870;2023-03-01T13:33:56;168.43;;;108.00;;
41952;SDS011;63613;28.200;112.870;2023-03-01T13:39:39;168.65;;;110.55;;
41952;SDS011;63613;28.200;112.870;2023-03-01T13:41:59;168.60;;;108.63;;
41952;SDS011;63613;28.200;112.870;2023-03-01T13:44:33;169.75;;;110.32;;
41952;SDS011;63613;28.200;112.870;2023-03-01T13:47:15;162.98;;;106.70;;
41952;SDS011;63613;28.200;112.870;2023-03-01T13:57:57;168.27;;;109.55;;
41952;SDS011;63613;28.200;112.870;2023-03-01T14:03:08;163.98;;;107.78;;
41952;SDS011;63613;28.200;112.870;2023-03-01T14:08:14;163.45;;;106.50;;
41952;SDS011;63613;28.200;112.870;2023-03-01T14:11:13;163.50;;;107.00;;
41952;SDS011;63613;28.200;112.870;2023-03-01T14:17:08;155.02;;;103.30;;
41952;SDS011;63613;28.200;112.870;2023-03-01T14:19:46;149.90;;;98.15;;
41952;SDS011;63613;28.200;112.870;2023-03-01T14:22:24;150.20;;;99.40;;
41952;SDS011;63613;28.200;112.870;2023-03-01T14:25:04;146.32;;;100.28;;
41952;SDS011;63613;28.200;112.870;2023-03-01T14:27:43;154.32;;;102.75;;
41952;SDS011;63613;28.200;112.870;2023-03-01T14:30:21;144.88;;;97.88;;
41952;SDS011;63613;28.200;112.870;2023-03-01T14:32:57;148.07;;;94.75;;
41952;SDS011;63613;28.200;112.870;2023-03-01T14:35:33;139.60;;;92.68;;
41952;SDS011;63613;28.200;112.870;2023-03-01T14:38:01;141.68;;;95.53;;
41952;SDS011;63613;28.200;112.870;2023-03-01T14:40:33;137.50;;;91.88;;
41952;SDS011;63613;28.200;112.870;2023-03-01T14:43:10;134.82;;;90.32;;
41952;SDS011;63613;28.200;112.870;2023-03-01T14:45:48;133.30;;;90.43;;
41952;SDS011;63613;28.200;112.870;2023-03-01T14:48:16;135.93;;;89.93;;
41952;SDS011;63613;28.200;112.870;2023-03-01T14:50:46;137.77;;;89.25;;
41952;SDS011;63613;28.200;112.870;2023-03-01T14:53:18;127.22;;;88.03;;
41952;SDS011;63613;28.200;112.870;2023-03-01T14:55:55;126.60;;;87.10;;
41952;SDS011;63613;28.200;112.870;2023-03-01T14:58:27;130.93;;;87.45;;
41952;SDS011;63613;28.200;112.870;2023-03-01T15:00:59;121.90;;;84.30;;
41952;SDS011;63613;28.200;112.870;2023-03-01T15:03:43;120.10;;;81.18;;
41952;SDS011;63613;28.200;112.870;2023-03-01T15:06:10;120.55;;;81.40;;
41952;SDS011;63613;28.200;112.870;2023-03-01T15:08:44;119.20;;;77.65;;
41952;SDS011;63613;28.200;112.870;2023-03-01T15:13:50;116.45;;;77.90;;
41952;SDS011;63613;28.200;112.870;2023-03-01T15:16:23;114.68;;;77.07;;
41952;SDS011;63613;28.200;112.870;2023-03-01T15:19:19;112.22;;;75.82;;
41952;SDS011;63613;28.200;112.870;2023-03-01T15:21:49;108.72;;;75.15;;
41952;SDS011;63613;28.200;112.870;2023-03-01T15:24:17;107.32;;;73.88;;
41952;SDS011;63613;28.200;112.870;2023-03-01T15:27:14;105.78;;;71.97;;
41952;SDS011;63613;28.200;112.870;2023-03-01T15:29:53;103.40;;;72.57;;
41952;SDS011;63613;28.200;112.870;2023-03-01T15:32:30;102.35;;;70.78;;
41952;SDS011;63613;28.200;112.870;2023-03-01T15:37:59;99.97;;;68.43;;
41952;SDS011;63613;28.200;112.870;2023-03-01T15:40:28;96.25;;;66.85;;
41952;SDS011;63613;28.200;112.870;2023-03-01T15:43:03;97.03;;;66.00;;
41952;SDS011;63613;28.200;112.870;2023-03-01T15:45:32;96.07;;;64.55;;
41952;SDS011;63613;28.200;112.870;2023-03-01T15:48:19;91.05;;;64.57;;
41952;SDS011;63613;28.200;112.870;2023-03-01T15:50:54;90.28;;;62.65;;
41952;SDS011;63613;28.200;112.870;2023-03-01T15:53:23;90.20;;;62.50;;
41952;SDS011;63613;28.200;112.870;2023-03-01T15:55:50;88.03;;;61.35;;
41952;SDS011;63613;28.200;112.870;2023-03-01T15:58:23;86.10;;;59.38;;
41952;SDS011;63613;28.200;112.870;2023-03-01T16:00:52;85.85;;;58.72;;
41952;SDS011;63613;28.200;112.870;2023-03-01T16:03:22;86.25;;;58.35;;
41952;SDS011;63613;28.200;112.870;2023-03-01T16:05:50;81.20;;;58.28;;
41952;SDS011;63613;28.200;112.870;2023-03-01T16:08:21;87.13;;;60.08;;
41952;SDS011;63613;28.200;112.870;2023-03-01T16:10:48;83.40;;;58.30;;
41952;SDS011;63613;28.200;112.870;2023-03-01T16:13:18;85.05;;;57.38;;
41952;SDS011;63613;28.200;112.870;2023-03-01T16:15:46;87.40;;;58.28;;
41952;SDS011;63613;28.200;112.870;2023-03-01T16:18:13;81.95;;;57.25;;
41952;SDS011;63613;28.200;112.870;2023-03-01T16:20:42;78.18;;;56.13;;
41952;SDS011;63613;28.200;112.870;2023-03-01T16:23:29;78.50;;;55.20;;
41952;SDS011;63613;28.200;112.870;2023-03-01T16:25:59;77.40;;;54.47;;
41952;SDS011;63613;28.200;112.870;2023-03-01T16:28:27;76.55;;;55.25;;
41952;SDS011;63613;28.200;112.870;2023-03-01T16:30:54;74.68;;;54.10;;
41952;SDS011;63613;28.200;112.870;2023-03-01T16:33:47;74.43;;;52.40;;
41952;SDS011;63613;28.200;112.870;2023-03-01T16:36:19;80.68;;;54.80;;
41952;SDS011;63613;28.200;112.870;2023-03-01T16:38:49;73.13;;;52.78;;